SBY weather

Salisbury Ocean City Wicomico Regional Airport
Salisbury, Maryland, United States

Public forecast

Using degrees Fahrenheit for public forecast. Weather courtesy of forecast.io.

METAR (pilot weather report)

Retrieved 2019/08/22 07:54 UTC (22 minutes ago):

KSBY 220754Z AUTO 00000KT 10SM BKN100 BKN120 23/22 A2989 RMK AO2 SLP123 T02330222

TAF (pilot weather forecast)

Retrieved 2019/08/22 06:33 UTC (2 hours ago):

TAF KSBY 220530Z 2206/2306 18005KT P6SM BKN050 FM220700 24004KT P6SM SCT250 FM221600 24008KT P6SM SCT050 FM222300 20007KT P6SM BKN080